Time;durP1;ratioP1;P1;durP2;ratioP2;P2;SDS_P1;SDS_P2;PMS_P1;PMS_P2;Temp;Humidity;BMP_temperature;BMP_pressure;BME280_temperature;BME280_humidity;BME280_pressure;Samples;Min_cycle;Max_cycle;Signal;HPM_P1;HPM_P2
2020/12/11 00:00:17;;;;;;;16.38;8.82;;;;;;;2.21;45.81;99927.88;5014018;28;20060;-66
2020/12/11 00:02:45;;;;;;;12.80;7.47;;;;;;;2.20;45.96;99932.41;5032222;28;20048;-67
2020/12/11 00:05:12;;;;;;;13.95;7.57;;;;;;;2.22;45.88;99938.53;5032259;28;20073;-67
2020/12/11 00:07:41;;;;;;;13.35;7.63;;;;;;;2.24;45.85;99930.34;5032049;28;20049;-66
2020/12/11 00:10:11;;;;;;;14.73;7.72;;;;;;;2.24;45.77;99923.13;5031278;28;20051;-67
2020/12/11 00:12:39;;;;;;;15.32;8.20;;;;;;;2.26;45.67;99917.63;5031827;28;20435;-66
2020/12/11 00:15:08;;;;;;;14.07;8.07;;;;;;;2.25;45.77;99910.50;5030805;28;20038;-66
2020/12/11 00:17:35;;;;;;;15.98;8.20;;;;;;;2.26;45.66;99906.84;5039257;28;20033;-66
2020/12/11 00:20:05;;;;;;;13.07;7.32;;;;;;;2.26;45.53;99890.66;5031304;28;20055;-67
2020/12/11 00:22:34;;;;;;;12.52;7.20;;;;;;;2.28;45.59;99883.31;5031075;28;20044;-66
2020/12/11 00:25:01;;;;;;;11.13;7.07;;;;;;;2.27;45.74;99879.75;5014423;28;20404;-67
2020/12/11 00:27:29;;;;;;;12.05;7.65;;;;;;;2.29;45.83;99880.53;5031633;28;20052;-67
2020/12/11 00:29:57;;;;;;;12.63;7.22;;;;;;;2.28;46.11;99876.09;5031133;28;20044;-66
2020/12/11 00:32:24;;;;;;;12.60;7.20;;;;;;;2.29;45.72;99871.56;5031605;28;20404;-67
2020/12/11 00:34:51;;;;;;;12.68;7.72;;;;;;;2.29;45.64;99861.63;5031897;28;20041;-66
2020/12/11 00:37:18;;;;;;;11.45;6.90;;;;;;;2.30;46.00;99851.72;5031629;28;20052;-66
2020/12/11 00:39:46;;;;;;;11.82;7.45;;;;;;;2.30;45.80;99857.09;5029963;28;20080;-66
2020/12/11 00:42:18;;;;;;;11.20;6.72;;;;;;;2.32;45.78;99842.50;5031645;28;20397;-67
2020/12/11 00:44:46;;;;;;;12.07;6.60;;;;;;;2.30;45.92;99846.31;5030499;28;20413;-66
2020/12/11 00:47:13;;;;;;;10.35;6.65;;;;;;;2.31;45.57;99845.31;5032001;28;20292;-66
2020/12/11 00:49:41;;;;;;;10.32;6.53;;;;;;;2.31;46.04;99835.38;5025604;28;20038;-66
2020/12/11 00:52:09;;;;;;;12.18;7.25;;;;;;;2.32;45.82;99825.44;5031408;28;20045;-66
2020/12/11 00:54:41;;;;;;;8.73;5.50;;;;;;;2.27;45.59;99833.00;5014014;28;20132;-66
2020/12/11 00:57:08;;;;;;;11.07;6.57;;;;;;;2.32;45.80;99820.94;5031405;28;20045;-66
2020/12/11 00:59:35;;;;;;;13.05;7.90;;;;;;;2.32;45.97;99809.25;5030739;28;20054;-66
2020/12/11 01:02:04;;;;;;;11.60;6.82;;;;;;;2.34;45.89;99807.34;5031681;28;20049;-67
2020/12/11 01:04:31;;;;;;;13.48;7.88;;;;;;;2.34;45.99;99816.28;5014106;28;20045;-66
2020/12/11 01:06:58;;;;;;;10.70;6.40;;;;;;;2.34;45.63;99802.81;5031624;28;20049;-66
2020/12/11 01:09:25;;;;;;;13.25;7.25;;;;;;;2.35;45.92;99801.84;5030586;28;20047;-66
2020/12/11 01:11:52;;;;;;;12.82;7.32;;;;;;;2.37;45.99;99788.25;5013404;28;20380;-66
2020/12/11 01:14:20;;;;;;;13.15;7.88;;;;;;;2.35;45.87;99785.63;5030634;28;20063;-66
2020/12/11 01:16:47;;;;;;;10.25;6.53;;;;;;;2.36;45.91;99781.97;5013841;28;20049;-66
2020/12/11 01:19:15;;;;;;;11.23;7.28;;;;;;;2.40;45.57;99790.72;5030559;28;20128;-66
2020/12/11 01:21:42;;;;;;;11.50;6.90;;;;;;;2.38;45.68;99790.81;5030833;28;20481;-66
2020/12/11 01:24:10;;;;;;;13.07;7.82;;;;;;;2.38;45.98;99787.28;5030996;28;20115;-66
2020/12/11 01:26:37;;;;;;;12.35;7.45;;;;;;;2.39;45.98;99786.28;5031563;28;20515;-67
2020/12/11 01:29:04;;;;;;;11.32;7.18;;;;;;;2.39;45.99;99779.03;5030098;28;20053;-67
2020/12/11 01:31:31;;;;;;;11.82;6.70;;;;;;;2.40;45.83;99774.50;5031486;28;20065;-67
2020/12/11 01:33:59;;;;;;;9.38;6.15;;;;;;;2.42;45.80;99765.34;5030891;28;20136;-66
2020/12/11 01:36:27;;;;;;;10.80;6.97;;;;;;;2.44;45.77;99778.75;5031275;28;20046;-67
2020/12/11 01:38:56;;;;;;;12.80;7.07;;;;;;;2.44;45.80;99770.66;5033791;28;20037;-67
2020/12/11 01:41:23;;;;;;;11.77;7.25;;;;;;;2.43;45.92;99764.38;5035125;28;20484;-66
2020/12/11 01:43:50;;;;;;;10.48;6.90;;;;;;;2.45;45.91;99750.78;5035020;28;20060;-67
2020/12/11 01:46:18;;;;;;;12.63;7.57;;;;;;;2.47;45.56;99746.13;5034217;28;20037;-66
2020/12/11 01:48:47;;;;;;;12.48;8.05;;;;;;;2.44;45.89;99736.41;5035455;28;20075;-67
2020/12/11 01:51:15;;;;;;;11.20;7.05;;;;;;;2.45;45.79;99731.88;5033987;28;20041;-66
2020/12/11 01:53:44;;;;;;;11.55;6.63;;;;;;;2.46;45.96;99730.91;5034561;28;20488;-66
2020/12/11 01:56:15;;;;;;;13.02;7.80;;;;;;;2.47;45.84;99732.63;5034402;28;20033;-67
2020/12/11 01:58:46;;;;;;;10.95;6.75;;;;;;;2.46;45.71;99722.81;5021855;28;20042;-66
2020/12/11 02:01:15;;;;;;;11.55;7.47;;;;;;;2.47;45.75;99724.53;5033687;28;20053;-66
2020/12/11 02:03:44;;;;;;;12.77;7.93;;;;;;;2.45;45.90;99713.84;5034746;28;20045;-66
2020/12/11 02:06:11;;;;;;;13.18;7.90;;;;;;;2.46;45.94;99712.88;5034452;28;20042;-66
2020/12/11 02:08:39;;;;;;;13.25;7.20;;;;;;;2.47;45.85;99706.50;5033251;28;20118;-66
2020/12/11 02:11:18;;;;;;;12.75;7.65;;;;;;;2.49;46.03;99699.16;5034106;28;20455;-67
2020/12/11 02:13:45;;;;;;;13.93;8.10;;;;;;;2.46;45.98;99702.09;5034144;28;20041;-67
2020/12/11 02:16:12;;;;;;;11.98;7.40;;;;;;;2.47;45.71;99693.00;5033607;28;20041;-66
2020/12/11 02:18:40;;;;;;;13.20;7.57;;;;;;;2.50;45.89;99692.78;5028085;28;20386;-66
2020/12/11 02:21:08;;;;;;;11.48;7.10;;;;;;;2.51;45.86;99696.34;5031306;28;20117;-67
2020/12/11 02:23:37;;;;;;;12.30;7.90;;;;;;;2.51;45.97;99691.81;5033688;28;20052;-66
2020/12/11 02:26:04;;;;;;;11.00;6.55;;;;;;;2.50;45.67;99676.59;5033810;28;20037;-66
2020/12/11 02:28:32;;;;;;;11.90;6.57;;;;;;;2.52;45.79;99684.59;5034091;28;20033;-67
2020/12/11 02:31:00;;;;;;;12.98;8.00;;;;;;;2.52;46.01;99676.50;5032813;28;20041;-66
2020/12/11 02:33:28;;;;;;;12.45;7.35;;;;;;;2.52;45.81;99669.25;5034004;28;20041;-66
2020/12/11 02:35:55;;;;;;;11.88;7.15;;;;;;;2.52;45.98;99663.84;5033449;28;20051;-67
2020/12/11 02:38:23;;;;;;;12.48;7.13;;;;;;;2.52;45.63;99653.06;5033784;28;20037;-66
2020/12/11 02:40:53;;;;;;;13.98;8.18;;;;;;;2.53;46.24;99651.22;5035977;28;20060;-66
2020/12/11 02:43:20;;;;;;;12.07;7.88;;;;;;;2.51;45.60;99642.38;5034049;28;20439;-66
2020/12/11 02:45:49;;;;;;;11.65;7.07;;;;;;;2.52;45.66;99644.97;5033203;28;20052;-66
2020/12/11 02:48:18;;;;;;;11.80;6.50;;;;;;;2.51;45.82;99637.84;5033891;28;20040;-67
2020/12/11 02:50:46;;;;;;;11.25;7.10;;;;;;;2.51;45.75;99639.66;5031910;28;20039;-67
2020/12/11 02:53:13;;;;;;;10.32;6.55;;;;;;;2.52;45.68;99639.56;5033215;28;20049;-66
2020/12/11 02:55:40;;;;;;;11.43;6.40;;;;;;;2.51;45.90;99629.75;5018699;28;20053;-66
2020/12/11 02:58:08;;;;;;;10.80;7.03;;;;;;;2.51;45.84;99626.16;5015548;28;20045;-66
2020/12/11 03:00:36;;;;;;;11.18;7.05;;;;;;;2.50;45.98;99628.00;5032427;28;20049;-66
2020/12/11 03:03:03;;;;;;;11.30;6.85;;;;;;;2.51;45.80;99629.75;5033989;28;20069;-66
2020/12/11 03:05:30;;;;;;;12.85;7.40;;;;;;;2.48;45.75;99627.25;5038693;28;20041;-66
2020/12/11 03:07:58;;;;;;;10.73;6.40;;;;;;;2.50;45.81;99635.25;5033114;28;20122;-66
2020/12/11 03:10:25;;;;;;;9.77;6.20;;;;;;;2.48;45.68;99632.66;5031294;28;20062;-66
2020/12/11 03:12:53;;;;;;;11.05;6.25;;;;;;;2.47;45.67;99635.44;5032870;28;20054;-66
2020/12/11 03:15:21;;;;;;;10.52;6.40;;;;;;;2.48;45.75;99626.38;5032651;28;20135;-66
2020/12/11 03:17:48;;;;;;;9.00;5.75;;;;;;;2.46;45.68;99625.66;5032000;28;20045;-66
2020/12/11 03:20:22;;;;;;;9.75;5.88;;;;;;;2.45;45.71;99619.38;5023577;28;20047;-66
2020/12/11 03:22:52;;;;;;;10.20;6.20;;;;;;;2.46;45.49;99622.97;5032480;28;20048;-66
2020/12/11 03:25:20;;;;;;;10.13;5.63;;;;;;;2.45;45.75;99616.69;5032876;28;20504;-66
2020/12/11 03:27:47;;;;;;;8.82;5.35;;;;;;;2.45;45.64;99621.22;5032727;28;20064;-66
2020/12/11 03:30:15;;;;;;;9.98;6.38;;;;;;;2.45;45.75;99618.53;5020972;28;20068;-66
2020/12/11 03:32:43;;;;;;;9.65;6.32;;;;;;;2.46;45.49;99612.16;5032187;28;20041;-66
2020/12/11 03:35:11;;;;;;;11.00;6.35;;;;;;;2.44;45.95;99609.56;5014891;28;20127;-65
2020/12/11 03:37:38;;;;;;;10.25;6.45;;;;;;;2.44;45.64;99611.41;5014904;28;20073;-66
2020/12/11 03:40:06;;;;;;;10.15;6.32;;;;;;;2.45;45.93;99614.00;5031509;28;20041;-66
2020/12/11 03:42:34;;;;;;;8.88;5.75;;;;;;;2.45;45.72;99607.72;5014364;28;20141;-66
2020/12/11 03:45:03;;;;;;;9.95;6.13;;;;;;;2.45;45.86;99608.59;5032250;28;20039;-66
2020/12/11 03:47:31;;;;;;;9.55;6.05;;;;;;;2.45;45.93;99602.34;5033962;28;20039;-66
2020/12/11 03:50:00;;;;;;;9.98;6.53;;;;;;;2.47;45.80;99600.34;5034271;28;20045;-66
2020/12/11 03:52:29;;;;;;;11.20;6.55;;;;;;;2.46;45.90;99591.44;5031720;28;20029;-66
2020/12/11 03:54:56;;;;;;;10.30;6.32;;;;;;;2.47;45.87;99592.25;5031541;28;20142;-66
2020/12/11 03:57:24;;;;;;;10.05;6.38;;;;;;;2.47;46.00;99589.56;5032234;28;20050;-66
2020/12/11 03:59:51;;;;;;;10.73;6.40;;;;;;;2.46;45.94;99588.72;5030408;28;20477;-66
2020/12/11 04:02:18;;;;;;;10.30;6.47;;;;;;;2.46;45.66;99596.84;5032219;28;20076;-66
2020/12/11 04:04:56;;;;;;;10.70;7.20;;;;;;;2.48;45.66;99580.50;5031552;28;20041;-66
2020/12/11 04:07:24;;;;;;;10.68;6.65;;;;;;;2.45;45.77;99573.50;5025266;28;20473;-66
2020/12/11 04:09:52;;;;;;;11.35;6.57;;;;;;;2.44;45.87;99569.09;5030563;28;20121;-66
2020/12/11 04:12:19;;;;;;;8.80;5.72;;;;;;;2.45;45.88;99573.50;5031828;28;20072;-66
2020/12/11 04:14:48;;;;;;;9.52;6.15;;;;;;;2.46;45.90;99558.19;5031770;28;20065;-66
2020/12/11 04:17:16;;;;;;;10.93;6.93;;;;;;;2.45;45.75;99560.00;5038537;28;20039;-66
2020/12/11 04:19:44;;;;;;;10.70;6.40;;;;;;;2.45;45.75;99565.41;5013094;28;20038;-66
2020/12/11 04:22:11;;;;;;;10.68;6.10;;;;;;;2.47;45.85;99557.19;5031184;28;20045;-66
2020/12/11 04:24:39;;;;;;;11.50;6.88;;;;;;;2.47;46.18;99551.78;5031872;28;20046;-66
2020/12/11 04:27:06;;;;;;;9.68;6.35;;;;;;;2.46;45.85;99539.28;5025069;28;20049;-66
2020/12/11 04:29:33;;;;;;;11.60;6.78;;;;;;;2.47;45.84;99538.28;5031135;28;20049;-66
2020/12/11 04:32:01;;;;;;;9.98;6.22;;;;;;;2.48;45.67;99526.50;5031316;28;20056;-66
2020/12/11 04:34:28;;;;;;;11.98;6.68;;;;;;;2.49;45.91;99528.25;5031934;28;20088;-66
2020/12/11 04:36:57;;;;;;;11.00;6.57;;;;;;;2.50;45.84;99538.94;5031295;28;20092;-66
2020/12/11 04:39:25;;;;;;;10.80;6.60;;;;;;;2.49;45.76;99545.31;5030775;28;20041;-66
2020/12/11 04:41:54;;;;;;;11.07;6.55;;;;;;;2.51;45.64;99547.88;5031068;28;20095;-66
2020/12/11 04:44:21;;;;;;;9.23;5.75;;;;;;;2.51;45.88;99548.75;5031529;28;20087;-66
2020/12/11 04:46:49;;;;;;;10.32;6.35;;;;;;;2.52;45.53;99525.31;5031269;28;20172;-66
2020/12/11 04:49:17;;;;;;;9.48;6.32;;;;;;;2.52;45.78;99504.59;5021006;28;20034;-66
2020/12/11 04:51:49;;;;;;;9.95;6.18;;;;;;;2.53;45.67;99509.03;5030846;28;20042;-66
2020/12/11 04:54:22;;;;;;;9.75;6.35;;;;;;;2.51;45.89;99516.38;5031535;28;20566;-66
2020/12/11 04:56:50;;;;;;;8.70;5.57;;;;;;;2.50;45.89;99498.44;5026442;28;20053;-66
2020/12/11 04:59:20;;;;;;;10.35;6.25;;;;;;;2.51;45.61;99499.31;5030130;28;20293;-66
2020/12/11 05:01:47;;;;;;;9.77;6.38;;;;;;;2.52;45.66;99484.84;5029845;28;20080;-67
2020/12/11 05:04:15;;;;;;;9.93;6.38;;;;;;;2.51;45.70;99473.19;5030824;28;20042;-66
2020/12/11 05:06:43;;;;;;;11.20;7.07;;;;;;;2.52;45.67;99482.13;5029187;28;20116;-67
2020/12/11 05:09:15;;;;;;;8.95;5.97;;;;;;;2.53;45.65;99471.22;5030627;28;20030;-66
2020/12/11 05:11:44;;;;;;;10.30;6.35;;;;;;;2.51;45.48;99469.63;5030795;28;20392;-66
2020/12/11 05:14:19;;;;;;;9.50;6.13;;;;;;;2.54;45.62;99469.41;5034915;28;20049;-66
2020/12/11 05:17:01;;;;;;;11.73;6.85;;;;;;;2.53;45.47;99467.66;5034518;28;20052;-66
2020/12/11 05:19:30;;;;;;;11.10;6.95;;;;;;;2.50;45.39;99455.25;5034399;28;20034;-66
2020/12/11 05:22:10;;;;;;;9.77;5.95;;;;;;;2.52;45.53;99450.59;5021269;28;20060;-66
2020/12/11 05:24:43;;;;;;;10.50;6.60;;;;;;;2.50;45.62;99449.00;5035219;28;20091;-66
2020/12/11 05:27:25;;;;;;;11.07;6.18;;;;;;;2.49;45.63;99440.03;5034412;28;20124;-66
2020/12/11 05:29:53;;;;;;;11.73;6.90;;;;;;;2.49;45.90;99431.94;5033744;28;20263;-66
2020/12/11 05:32:34;;;;;;;9.57;5.97;;;;;;;2.50;45.44;99422.88;5034734;28;20042;-66
2020/12/11 05:35:02;;;;;;;9.75;6.45;;;;;;;2.49;45.78;99426.53;5034504;28;20069;-66
2020/12/11 05:37:30;;;;;;;11.55;7.25;;;;;;;2.49;45.77;99418.44;5035193;28;20041;-66
2020/12/11 05:39:57;;;;;;;10.88;6.32;;;;;;;2.50;45.85;99412.06;5034241;28;20116;-66
2020/12/11 05:42:25;;;;;;;12.10;7.43;;;;;;;2.49;45.88;99390.59;5023391;28;20049;-66
2020/12/11 05:44:53;;;;;;;10.27;7.15;;;;;;;2.50;45.62;99379.69;5034725;28;20526;-66
2020/12/11 05:47:24;;;;;;;10.82;6.93;;;;;;;2.48;45.74;99360.03;5017892;28;20127;-66
2020/12/11 05:49:51;;;;;;;11.55;7.30;;;;;;;2.47;45.59;99357.44;5042296;28;20049;-66
2020/12/11 05:52:22;;;;;;;12.00;7.40;;;;;;;2.46;45.71;99359.31;5032429;28;20112;-67
2020/12/11 05:54:53;;;;;;;11.30;6.65;;;;;;;2.45;45.56;99349.50;5034679;28;20128;-66
2020/12/11 05:57:22;;;;;;;12.45;7.80;;;;;;;2.42;45.58;99344.31;5033711;28;20045;-67
2020/12/11 05:59:50;;;;;;;11.52;7.07;;;;;;;2.40;45.79;99326.50;5033809;28;20509;-67
2020/12/11 06:02:18;;;;;;;10.15;6.47;;;;;;;2.42;45.78;99320.03;5034308;28;20128;-67
2020/12/11 06:04:46;;;;;;;12.13;7.55;;;;;;;2.40;45.57;99316.59;5034323;28;20128;-66
2020/12/11 06:07:15;;;;;;;11.57;6.55;;;;;;;2.41;45.79;99314.75;5033659;28;20041;-66
2020/12/11 06:09:43;;;;;;;12.75;7.20;;;;;;;2.41;45.63;99310.22;5033497;28;20389;-67
2020/12/11 06:12:12;;;;;;;11.93;6.75;;;;;;;2.41;45.95;99310.22;5033489;28;20053;-66
2020/12/11 06:14:45;;;;;;;13.02;7.80;;;;;;;2.39;45.72;99303.19;5034370;28;20050;-67
2020/12/11 06:17:14;;;;;;;13.05;7.95;;;;;;;2.36;45.83;99304.31;5033456;28;20468;-66
2020/12/11 06:19:44;;;;;;;12.30;7.18;;;;;;;2.39;45.54;99298.66;5033249;28;20042;-66
2020/12/11 06:22:13;;;;;;;11.15;6.65;;;;;;;2.40;45.51;99289.59;5032883;28;20049;-67
2020/12/11 06:24:40;;;;;;;12.00;6.90;;;;;;;2.39;45.87;99284.31;5033655;28;20057;-66
2020/12/11 06:27:08;;;;;;;11.75;7.50;;;;;;;2.38;45.63;99275.34;5016030;28;20049;-66
2020/12/11 06:29:39;;;;;;;11.70;6.88;;;;;;;2.40;45.61;99265.31;5032782;28;20048;-66
2020/12/11 06:32:07;;;;;;;11.15;7.35;;;;;;;2.38;45.68;99247.53;5033609;28;20454;-66
2020/12/11 06:34:35;;;;;;;11.10;7.15;;;;;;;2.37;45.62;99254.78;5033819;28;20041;-67
2020/12/11 06:37:04;;;;;;;10.80;7.25;;;;;;;2.39;45.70;99254.63;5033316;28;20038;-66
2020/12/11 06:39:42;;;;;;;12.10;7.25;;;;;;;2.40;45.68;99253.66;5032974;28;20103;-66
2020/12/11 06:42:44;;;;;;;10.30;6.80;;;;;;;2.38;45.68;99247.53;5033323;28;20074;-66
2020/12/11 06:45:17;;;;;;;12.48;7.65;;;;;;;2.38;45.74;99247.53;5027729;28;20439;-66
2020/12/11 06:47:49;;;;;;;11.47;7.60;;;;;;;2.38;46.12;99263.72;5035695;28;20225;-66
2020/12/11 06:50:18;;;;;;;11.70;6.90;;;;;;;2.37;46.01;99265.56;5031698;28;20475;-66
2020/12/11 06:52:46;;;;;;;12.13;7.20;;;;;;;2.40;45.87;99267.16;5027113;28;20029;-66
2020/12/11 06:55:14;;;;;;;12.15;7.38;;;;;;;2.39;46.03;99262.72;5032441;28;20045;-66
2020/12/11 06:57:44;;;;;;;13.30;7.90;;;;;;;2.39;45.87;99260.88;5032468;28;20042;-66
2020/12/11 07:00:34;;;;;;;13.10;7.88;;;;;;;2.43;45.88;99265.09;5032092;28;20069;-66
2020/12/11 07:03:31;;;;;;;11.15;6.97;;;;;;;2.37;45.98;99251.22;5021187;28;20103;-66
2020/12/11 07:06:01;;;;;;;11.98;7.13;;;;;;;2.40;46.15;99249.13;4971721;28;20086;-66
2020/12/11 07:08:29;;;;;;;12.98;7.50;;;;;;;2.41;45.96;99249.97;5020052;28;20136;-66
2020/12/11 07:11:04;;;;;;;12.00;7.75;;;;;;;2.44;46.11;99245.22;5030863;28;20432;-66
2020/12/11 07:13:32;;;;;;;13.35;7.50;;;;;;;2.43;45.95;99242.63;5025839;28;20045;-66
2020/12/11 07:16:00;;;;;;;11.63;7.05;;;;;;;2.45;46.04;99246.06;5033873;28;20045;-66
2020/12/11 07:18:28;;;;;;;12.25;7.40;;;;;;;2.46;45.94;99234.31;5032605;28;20048;-66
2020/12/11 07:20:58;;;;;;;11.38;6.82;;;;;;;2.48;45.98;99232.31;5014443;28;20048;-67
2020/12/11 07:23:26;;;;;;;10.57;6.75;;;;;;;2.49;46.18;99226.81;5031344;28;20041;-66
2020/12/11 07:25:56;;;;;;;11.07;6.32;;;;;;;2.51;45.94;99238.34;5031489;28;20041;-66
2020/12/11 07:28:24;;;;;;;11.27;6.80;;;;;;;2.52;46.10;99231.13;5032888;28;20125;-66
2020/12/11 07:30:51;;;;;;;11.32;7.05;;;;;;;2.53;45.88;99220.22;5031716;28;20121;-66
2020/12/11 07:33:20;;;;;;;9.95;5.95;;;;;;;2.55;45.84;99212.81;5032520;28;20059;-66
2020/12/11 07:35:49;;;;;;;10.98;7.25;;;;;;;2.57;45.76;99218.09;5030452;28;20547;-67
2020/12/11 07:38:19;;;;;;;11.63;7.00;;;;;;;2.59;46.08;99226.94;5032472;28;20042;-67
2020/12/11 07:40:54;;;;;;;11.45;6.93;;;;;;;2.62;45.69;99218.63;5031585;28;20134;-66
2020/12/11 07:43:23;;;;;;;11.07;7.22;;;;;;;2.60;46.04;99217.88;5032339;28;20037;-66
2020/12/11 07:45:51;;;;;;;11.35;7.32;;;;;;;2.62;45.94;99215.06;5031734;28;20038;-66
2020/12/11 07:48:19;;;;;;;12.77;7.32;;;;;;;2.63;46.05;99214.91;5031554;28;20046;-66
2020/12/11 07:50:46;;;;;;;11.18;7.28;;;;;;;2.65;46.21;99225.59;5031113;28;20048;-66
2020/12/11 07:53:14;;;;;;;11.63;6.78;;;;;;;2.68;45.93;99231.63;5032046;28;20057;-66
2020/12/11 07:55:44;;;;;;;11.77;6.95;;;;;;;2.69;45.89;99241.44;5032258;28;20467;-66
2020/12/11 07:58:13;;;;;;;10.35;6.70;;;;;;;2.72;45.88;99245.72;5032301;28;20061;-66
2020/12/11 08:00:40;;;;;;;12.52;6.95;;;;;;;2.72;46.07;99235.78;5031147;28;20055;-66
2020/12/11 08:03:08;;;;;;;11.13;6.95;;;;;;;2.73;46.07;99240.19;5031656;28;20045;-66
2020/12/11 08:05:37;;;;;;;10.93;6.60;;;;;;;2.76;45.94;99239.09;5031742;28;20132;-66
2020/12/11 08:08:05;;;;;;;10.00;6.93;;;;;;;2.78;45.94;99238.00;5031894;28;20049;-66
2020/12/11 08:10:36;;;;;;;9.82;6.25;;;;;;;2.82;46.09;99241.31;5031148;28;20400;-66
2020/12/11 08:13:20;;;;;;;10.50;6.85;;;;;;;2.85;45.45;99231.13;5031969;28;20048;-66
2020/12/11 08:15:47;;;;;;;10.20;6.60;;;;;;;2.83;45.81;99225.00;5032073;28;20111;-66
2020/12/11 08:18:24;;;;;;;11.60;6.68;;;;;;;2.87;45.73;99226.47;5031547;28;20048;-66
2020/12/11 08:20:54;;;;;;;10.90;6.40;;;;;;;2.90;45.88;99211.84;5026457;28;20038;-66
2020/12/11 08:23:26;;;;;;;10.75;6.55;;;;;;;2.91;45.90;99217.13;5024166;28;20041;-66
2020/12/11 08:26:07;;;;;;;10.05;6.28;;;;;;;2.96;45.72;99213.22;5031681;28;20128;-66
2020/12/11 08:28:36;;;;;;;10.38;6.10;;;;;;;2.96;45.81;99210.50;5031335;28;20465;-67
2020/12/11 08:31:21;;;;;;;10.35;6.50;;;;;;;2.99;45.68;99200.28;5031587;28;20421;-66
2020/12/11 08:33:50;;;;;;;9.15;6.03;;;;;;;2.99;45.92;99205.69;5032654;28;20049;-66
2020/12/11 08:36:19;;;;;;;9.93;6.10;;;;;;;3.04;45.64;99200.78;5031443;28;20099;-66
2020/12/11 08:39:05;;;;;;;8.60;5.45;;;;;;;3.08;45.73;99201.38;5031027;28;20037;-66
2020/12/11 08:41:35;;;;;;;11.75;7.22;;;;;;;3.02;45.90;99188.41;5041111;28;20047;-66
2020/12/11 08:44:08;;;;;;;11.65;7.35;;;;;;;3.05;46.04;99191.69;5031486;28;20065;-66
2020/12/11 08:46:44;;;;;;;9.98;6.80;;;;;;;3.06;45.63;99188.00;5023632;28;20407;-66
2020/12/11 08:49:41;;;;;;;10.05;6.18;;;;;;;3.13;45.62;99183.81;5031906;28;20068;-66
2020/12/11 08:52:09;;;;;;;10.00;6.53;;;;;;;3.11;46.07;99180.41;5029715;28;20484;-66
2020/12/11 08:54:37;;;;;;;10.13;6.00;;;;;;;3.16;45.83;99193.50;5028582;28;20061;-66
2020/12/11 08:57:04;;;;;;;8.75;5.45;;;;;;;3.18;45.81;99191.56;5031215;28;20045;-66
2020/12/11 08:59:32;;;;;;;10.20;6.05;;;;;;;3.21;45.61;99194.84;5028027;28;20029;-66
2020/12/11 09:02:01;;;;;;;9.70;6.32;;;;;;;3.22;45.86;99182.19;5030583;28;20125;-66
2020/12/11 09:04:29;;;;;;;10.60;6.32;;;;;;;3.24;45.69;99197.31;5029263;28;20068;-66
2020/12/11 09:06:57;;;;;;;9.95;6.10;;;;;;;3.26;45.88;99183.69;5030988;28;20052;-66
2020/12/11 09:09:25;;;;;;;9.55;6.25;;;;;;;3.28;45.92;99184.41;5030423;28;20052;-66
2020/12/11 09:11:52;;;;;;;11.32;6.68;;;;;;;3.29;45.59;99183.41;5031609;28;20497;-66
2020/12/11 09:14:19;;;;;;;10.00;6.68;;;;;;;3.32;45.70;99178.63;5030431;28;20047;-66
2020/12/11 09:16:50;;;;;;;10.20;6.13;;;;;;;3.36;45.75;99175.66;5024942;28;20056;-66
2020/12/11 09:19:18;;;;;;;10.48;6.20;;;;;;;3.37;45.91;99180.09;5012789;28;20053;-67
2020/12/11 09:21:46;;;;;;;10.82;6.60;;;;;;;3.39;45.72;99178.94;5031023;28;20465;-66
2020/12/11 09:24:14;;;;;;;9.90;5.78;;;;;;;3.41;45.67;99173.44;5024135;28;20053;-66
2020/12/11 09:26:42;;;;;;;10.50;6.60;;;;;;;3.43;45.81;99187.69;5017152;28;20497;-66
2020/12/11 09:29:13;;;;;;;8.95;5.35;;;;;;;3.47;45.68;99184.56;5012889;28;20446;-66
2020/12/11 09:31:43;;;;;;;9.70;5.95;;;;;;;3.47;45.62;99175.59;5031414;28;20120;-66
2020/12/11 09:34:11;;;;;;;9.30;6.32;;;;;;;3.50;45.73;99168.13;5031013;28;20045;-67
2020/12/11 09:36:42;;;;;;;9.38;6.35;;;;;;;3.53;45.56;99172.41;5031440;28;20053;-67
2020/12/11 09:39:10;;;;;;;9.90;5.60;;;;;;;3.52;45.78;99170.69;5030136;28;20128;-66
2020/12/11 09:41:38;;;;;;;9.85;6.20;;;;;;;3.55;45.88;99167.72;5030993;28;20156;-67
2020/12/11 09:44:35;;;;;;;9.05;6.20;;;;;;;3.55;45.77;99160.47;5030967;28;20065;-66
2020/12/11 09:47:25;;;;;;;9.32;5.47;;;;;;;3.56;45.90;99169.44;5031240;28;20041;-67
2020/12/11 09:50:04;;;;;;;9.40;6.28;;;;;;;3.58;45.69;99164.75;5017892;28;20033;-66
2020/12/11 09:52:41;;;;;;;9.20;5.95;;;;;;;3.58;45.63;99165.63;5030804;28;20041;-66
2020/12/11 09:55:10;;;;;;;9.13;5.38;;;;;;;3.60;45.64;99155.53;5013379;28;20041;-67
2020/12/11 09:57:37;;;;;;;8.32;5.55;;;;;;;3.60;45.53;99166.34;5031156;28;20489;-67
2020/12/11 10:00:06;;;;;;;8.73;5.65;;;;;;;3.63;45.65;99152.59;5033560;28;20099;-67
2020/12/11 10:02:49;;;;;;;8.82;5.57;;;;;;;3.64;45.66;99158.88;5034437;28;20068;-67
2020/12/11 10:05:19;;;;;;;11.52;5.82;;;;;;;3.64;45.74;99137.22;5034730;28;20053;-67
2020/12/11 10:07:46;;;;;;;9.88;5.97;;;;;;;3.66;45.75;99140.66;5034432;28;20107;-66
2020/12/11 10:10:14;;;;;;;10.05;5.93;;;;;;;3.66;45.93;99133.41;5033579;28;20041;-67
2020/12/11 10:12:41;;;;;;;9.77;5.50;;;;;;;3.69;45.69;99137.72;5030533;28;20411;-67
2020/12/11 10:15:10;;;;;;;9.48;6.07;;;;;;;3.70;45.69;99128.59;5034543;28;20053;-67
2020/12/11 10:17:38;;;;;;;9.02;5.90;;;;;;;3.73;45.83;99132.88;5034213;28;20041;-66
2020/12/11 10:20:06;;;;;;;8.20;5.22;;;;;;;3.74;45.69;99118.38;5033520;28;20037;-67
2020/12/11 10:22:35;;;;;;;8.85;5.90;;;;;;;3.76;45.87;99122.69;5038949;28;20045;-67
2020/12/11 10:25:02;;;;;;;8.70;4.97;;;;;;;3.78;45.99;99111.72;5034235;28;20508;-67
2020/12/11 10:27:30;;;;;;;9.45;5.88;;;;;;;3.79;45.93;99113.41;5033592;28;20044;-66
2020/12/11 10:30:02;;;;;;;8.90;5.65;;;;;;;3.81;45.98;99108.75;5015741;28;20520;-66
2020/12/11 10:32:30;;;;;;;9.73;5.38;;;;;;;3.83;46.08;99096.81;5033795;28;20049;-66
2020/12/11 10:34:58;;;;;;;9.35;5.75;;;;;;;3.84;45.92;99094.97;5034033;28;20041;-66
2020/12/11 10:37:26;;;;;;;8.90;5.80;;;;;;;3.87;45.99;99090.13;5034243;28;20136;-66
2020/12/11 10:39:54;;;;;;;8.02;5.25;;;;;;;3.90;46.15;99103.41;5032916;28;20041;-66
2020/12/11 10:42:22;;;;;;;9.43;5.75;;;;;;;3.92;46.14;99081.63;5033992;28;20052;-66
2020/12/11 10:44:49;;;;;;;9.93;5.85;;;;;;;3.95;46.17;99063.28;5033011;28;20048;-66
2020/12/11 10:47:17;;;;;;;9.32;6.03;;;;;;;3.97;46.07;99068.56;5033746;28;20046;-66
2020/12/11 10:49:44;;;;;;;8.60;5.45;;;;;;;4.00;45.76;99071.84;5032625;28;20041;-66
2020/12/11 10:52:12;;;;;;;9.07;6.22;;;;;;;3.98;46.08;99068.44;5033482;28;20547;-66
2020/12/11 10:54:39;;;;;;;10.85;5.90;;;;;;;4.04;45.92;99069.72;5033563;28;20040;-66
2020/12/11 10:57:08;;;;;;;8.77;5.82;;;;;;;4.07;46.04;99067.63;5033447;28;20046;-66
2020/12/11 10:59:35;;;;;;;8.73;5.22;;;;;;;4.08;45.84;99063.94;5032392;28;20068;-66
2020/12/11 11:02:02;;;;;;;8.68;5.57;;;;;;;4.10;45.86;99066.50;5033617;28;20040;-66
2020/12/11 11:04:31;;;;;;;8.50;5.30;;;;;;;4.13;45.75;99062.66;5033311;28;20047;-66
2020/12/11 11:07:01;;;;;;;8.25;5.10;;;;;;;4.15;45.96;99055.25;5015563;28;20049;-66
2020/12/11 11:09:35;;;;;;;9.13;5.68;;;;;;;4.16;45.81;99057.84;5031760;28;20045;-67
2020/12/11 11:12:11;;;;;;;9.07;5.55;;;;;;;4.17;45.57;99051.44;5032710;28;20040;-67
2020/12/11 11:15:12;;;;;;;7.95;5.07;;;;;;;4.20;45.90;99059.25;5033354;28;20049;-67
2020/12/11 11:20:44;;;;;;;;;;;;;;;3.99;46.46;99048.50;5032843;28;20132;-66
2020/12/11 11:23:21;;;;;;;9.30;5.35;;;;;;;4.20;46.08;99034.03;5032738;28;20382;-66
2020/12/11 11:28:40;;;;;;;8.23;4.68;;;;;;;4.26;45.63;99023.56;5027387;28;20111;-67
2020/12/11 11:31:11;;;;;;;8.25;4.93;;;;;;;4.30;45.62;99032.25;5032631;28;20037;-67
2020/12/11 11:33:38;;;;;;;8.25;5.10;;;;;;;4.29;45.74;99019.69;5033048;28;20497;-67
2020/12/11 11:36:06;;;;;;;9.40;5.43;;;;;;;4.30;45.73;99016.84;5032399;28;20133;-66
2020/12/11 11:38:34;;;;;;;8.25;5.15;;;;;;;4.32;45.61;99016.72;5032540;28;20546;-66
2020/12/11 11:41:02;;;;;;;9.02;5.25;;;;;;;4.32;45.74;99012.16;5032241;28;20049;-66
2020/12/11 11:43:44;;;;;;;8.73;4.97;;;;;;;4.33;45.86;99005.78;5001726;28;20050;-67
2020/12/11 11:46:12;;;;;;;8.60;5.47;;;;;;;4.31;45.83;98999.63;5032276;28;20048;-66
2020/12/11 11:48:42;;;;;;;9.73;5.53;;;;;;;4.34;45.99;98998.50;5033815;28;20811;-66
2020/12/11 11:51:14;;;;;;;8.27;5.07;;;;;;;4.36;45.95;99007.31;5031785;28;20041;-66
2020/12/11 11:53:42;;;;;;;8.10;4.57;;;;;;;4.35;45.72;99011.91;5000282;28;20051;-66